sensor_id;sensor_type;location;lat;lon;timestamp;temperature;humidity
39103;DHT22;24847;48.218;16.414;2023-09-07T00:03:48;18.80;99.90
39103;DHT22;24847;48.218;16.414;2023-09-07T00:08:51;18.80;99.90
39103;DHT22;24847;48.218;16.414;2023-09-07T00:13:54;18.60;99.90
39103;DHT22;24847;48.218;16.414;2023-09-07T00:18:58;18.60;99.90
39103;DHT22;24847;48.218;16.414;2023-09-07T00:24:00;18.50;99.90
39103;DHT22;24847;48.218;16.414;2023-09-07T00:29:07;18.30;99.90
39103;DHT22;24847;48.218;16.414;2023-09-07T00:34:09;18.40;99.90
39103;DHT22;24847;48.218;16.414;2023-09-07T00:39:11;18.30;99.90
39103;DHT22;24847;48.218;16.414;2023-09-07T00:44:18;18.10;99.90
39103;DHT22;24847;48.218;16.414;2023-09-07T00:49:21;18.10;99.90
39103;DHT22;24847;48.218;16.414;2023-09-07T00:54:23;18.10;99.90
39103;DHT22;24847;48.218;16.414;2023-09-07T00:59:27;18.10;99.90
39103;DHT22;24847;48.218;16.414;2023-09-07T01:04:29;18.30;99.90
39103;DHT22;24847;48.218;16.414;2023-09-07T01:09:32;18.30;99.90
39103;DHT22;24847;48.218;16.414;2023-09-07T01:14:40;18.10;99.90
39103;DHT22;24847;48.218;16.414;2023-09-07T01:19:43;18.10;99.90
39103;DHT22;24847;48.218;16.414;2023-09-07T01:24:47;18.00;99.90
39103;DHT22;24847;48.218;16.414;2023-09-07T01:29:51;17.80;99.90
39103;DHT22;24847;48.218;16.414;2023-09-07T01:34:55;17.70;99.90
39103;DHT22;24847;48.218;16.414;2023-09-07T01:40:00;17.80;99.90
39103;DHT22;24847;48.218;16.414;2023-09-07T01:45:08;17.70;99.90
39103;DHT22;24847;48.218;16.414;2023-09-07T01:50:11;18.00;99.90
39103;DHT22;24847;48.218;16.414;2023-09-07T01:55:16;17.60;99.90
39103;DHT22;24847;48.218;16.414;2023-09-07T02:00:18;17.40;99.90
39103;DHT22;24847;48.218;16.414;2023-09-07T02:05:21;17.60;99.90
39103;DHT22;24847;48.218;16.414;2023-09-07T02:10:25;17.60;99.90
39103;DHT22;24847;48.218;16.414;2023-09-07T02:15:27;17.60;99.90
39103;DHT22;24847;48.218;16.414;2023-09-07T02:20:30;17.60;99.90
39103;DHT22;24847;48.218;16.414;2023-09-07T02:25:33;17.50;99.90
39103;DHT22;24847;48.218;16.414;2023-09-07T02:30:36;17.40;99.90
39103;DHT22;24847;48.218;16.414;2023-09-07T02:35:38;17.30;99.90
39103;DHT22;24847;48.218;16.414;2023-09-07T02:40:42;17.30;99.90
39103;DHT22;24847;48.218;16.414;2023-09-07T02:45:45;17.40;99.90
39103;DHT22;24847;48.218;16.414;2023-09-07T02:50:48;17.40;99.90
39103;DHT22;24847;48.218;16.414;2023-09-07T02:55:52;17.80;99.90
39103;DHT22;24847;48.218;16.414;2023-09-07T03:00:54;17.50;99.90
39103;DHT22;24847;48.218;16.414;2023-09-07T03:06:08;17.20;99.90
39103;DHT22;24847;48.218;16.414;2023-09-07T03:11:12;17.30;99.90
39103;DHT22;24847;48.218;16.414;2023-09-07T03:16:15;17.60;99.90
39103;DHT22;24847;48.218;16.414;2023-09-07T03:21:17;17.30;99.90
39103;DHT22;24847;48.218;16.414;2023-09-07T03:26:21;17.60;99.90
39103;DHT22;24847;48.218;16.414;2023-09-07T03:31:24;17.30;99.90
39103;DHT22;24847;48.218;16.414;2023-09-07T03:36:26;17.30;99.90
39103;DHT22;24847;48.218;16.414;2023-09-07T03:41:29;17.50;99.90
39103;DHT22;24847;48.218;16.414;2023-09-07T03:46:32;17.40;99.90
39103;DHT22;24847;48.218;16.414;2023-09-07T03:51:39;17.90;99.90
39103;DHT22;24847;48.218;16.414;2023-09-07T03:56:43;17.20;99.90
39103;DHT22;24847;48.218;16.414;2023-09-07T04:01:45;17.30;99.90
39103;DHT22;24847;48.218;16.414;2023-09-07T04:06:47;17.60;99.90
39103;DHT22;24847;48.218;16.414;2023-09-07T04:11:51;17.20;99.90
39103;DHT22;24847;48.218;16.414;2023-09-07T04:16:53;17.70;99.90
39103;DHT22;24847;48.218;16.414;2023-09-07T04:21:56;17.40;99.90
39103;DHT22;24847;48.218;16.414;2023-09-07T04:27:01;17.20;99.90
39103;DHT22;24847;48.218;16.414;2023-09-07T04:32:04;17.50;99.90
39103;DHT22;24847;48.218;16.414;2023-09-07T04:37:07;17.20;99.90
39103;DHT22;24847;48.218;16.414;2023-09-07T04:42:10;17.40;99.90
39103;DHT22;24847;48.218;16.414;2023-09-07T04:47:13;17.90;99.90
39103;DHT22;24847;48.218;16.414;2023-09-07T04:52:16;17.20;99.90
39103;DHT22;24847;48.218;16.414;2023-09-07T04:57:19;16.90;99.90
39103;DHT22;24847;48.218;16.414;2023-09-07T05:02:21;17.00;99.90
39103;DHT22;24847;48.218;16.414;2023-09-07T05:07:24;17.00;99.90
39103;DHT22;24847;48.218;16.414;2023-09-07T05:12:27;17.00;99.90
39103;DHT22;24847;48.218;16.414;2023-09-07T05:17:30;17.10;99.90
39103;DHT22;24847;48.218;16.414;2023-09-07T05:22:32;17.20;99.90
39103;DHT22;24847;48.218;16.414;2023-09-07T05:27:39;17.40;99.90
39103;DHT22;24847;48.218;16.414;2023-09-07T05:32:41;17.40;99.90
39103;DHT22;24847;48.218;16.414;2023-09-07T05:37:44;17.50;99.90
39103;DHT22;24847;48.218;16.414;2023-09-07T05:42:49;17.30;99.90
39103;DHT22;24847;48.218;16.414;2023-09-07T05:47:51;17.40;99.90
39103;DHT22;24847;48.218;16.414;2023-09-07T05:52:53;17.50;99.90
39103;DHT22;24847;48.218;16.414;2023-09-07T05:57:58;17.80;99.90
39103;DHT22;24847;48.218;16.414;2023-09-07T06:03:00;17.70;99.90
39103;DHT22;24847;48.218;16.414;2023-09-07T06:08:04;17.90;99.90
39103;DHT22;24847;48.218;16.414;2023-09-07T06:13:09;17.90;99.90
39103;DHT22;24847;48.218;16.414;2023-09-07T06:18:11;18.20;99.90
39103;DHT22;24847;48.218;16.414;2023-09-07T06:23:14;18.30;99.90
39103;DHT22;24847;48.218;16.414;2023-09-07T06:28:17;18.10;99.90
39103;DHT22;24847;48.218;16.414;2023-09-07T06:33:19;18.40;99.90
39103;DHT22;24847;48.218;16.414;2023-09-07T06:38:22;18.30;99.90
39103;DHT22;24847;48.218;16.414;2023-09-07T06:43:26;18.50;99.90
39103;DHT22;24847;48.218;16.414;2023-09-07T06:48:28;18.50;99.90
39103;DHT22;24847;48.218;16.414;2023-09-07T06:53:31;18.50;99.90
39103;DHT22;24847;48.218;16.414;2023-09-07T06:58:35;18.60;99.90
39103;DHT22;24847;48.218;16.414;2023-09-07T07:03:37;18.50;99.90
39103;DHT22;24847;48.218;16.414;2023-09-07T07:08:39;18.70;99.90
39103;DHT22;24847;48.218;16.414;2023-09-07T07:13:42;18.90;99.90
39103;DHT22;24847;48.218;16.414;2023-09-07T07:18:45;20.40;99.90
39103;DHT22;24847;48.218;16.414;2023-09-07T07:23:47;22.10;99.90
39103;DHT22;24847;48.218;16.414;2023-09-07T07:28:51;22.50;99.90
39103;DHT22;24847;48.218;16.414;2023-09-07T07:33:53;22.60;99.90
39103;DHT22;24847;48.218;16.414;2023-09-07T07:38:56;23.20;99.90
39103;DHT22;24847;48.218;16.414;2023-09-07T07:43:59;24.20;99.90
39103;DHT22;24847;48.218;16.414;2023-09-07T07:49:01;23.30;99.90
39103;DHT22;24847;48.218;16.414;2023-09-07T07:54:04;23.50;99.90
39103;DHT22;24847;48.218;16.414;2023-09-07T07:59:08;24.30;99.90
39103;DHT22;24847;48.218;16.414;2023-09-07T08:04:10;25.30;99.90
39103;DHT22;24847;48.218;16.414;2023-09-07T08:09:13;24.80;99.90
39103;DHT22;24847;48.218;16.414;2023-09-07T08:14:17;25.10;99.90
39103;DHT22;24847;48.218;16.414;2023-09-07T08:19:22;25.70;99.90
39103;DHT22;24847;48.218;16.414;2023-09-07T08:24:24;25.60;99.90
39103;DHT22;24847;48.218;16.414;2023-09-07T08:29:29;26.00;99.90
39103;DHT22;24847;48.218;16.414;2023-09-07T08:34:33;26.20;99.90
39103;DHT22;24847;48.218;16.414;2023-09-07T08:39:37;26.80;99.90
39103;DHT22;24847;48.218;16.414;2023-09-07T08:44:43;27.20;99.90
39103;DHT22;24847;48.218;16.414;2023-09-07T08:49:48;28.00;99.90
39103;DHT22;24847;48.218;16.414;2023-09-07T08:54:50;28.40;99.90
39103;DHT22;24847;48.218;16.414;2023-09-07T08:59:55;27.80;99.90
39103;DHT22;24847;48.218;16.414;2023-09-07T09:04:58;28.40;99.90
39103;DHT22;24847;48.218;16.414;2023-09-07T09:10:07;28.10;99.90
39103;DHT22;24847;48.218;16.414;2023-09-07T09:15:11;27.80;99.90
39103;DHT22;24847;48.218;16.414;2023-09-07T09:20:21;27.70;99.90
39103;DHT22;24847;48.218;16.414;2023-09-07T09:25:24;27.90;99.90
39103;DHT22;24847;48.218;16.414;2023-09-07T09:30:28;27.60;99.90
39103;DHT22;24847;48.218;16.414;2023-09-07T09:35:31;27.80;99.90
39103;DHT22;24847;48.218;16.414;2023-09-07T09:40:33;28.10;99.90
39103;DHT22;24847;48.218;16.414;2023-09-07T09:45:38;27.80;99.90
39103;DHT22;24847;48.218;16.414;2023-09-07T09:50:42;27.80;99.90
39103;DHT22;24847;48.218;16.414;2023-09-07T09:55:46;27.50;99.90
39103;DHT22;24847;48.218;16.414;2023-09-07T10:00:51;27.60;99.90
39103;DHT22;24847;48.218;16.414;2023-09-07T10:06:06;27.60;99.90
39103;DHT22;24847;48.218;16.414;2023-09-07T10:11:09;27.80;99.90
39103;DHT22;24847;48.218;16.414;2023-09-07T10:16:13;27.90;99.90
39103;DHT22;24847;48.218;16.414;2023-09-07T10:21:15;27.80;99.90
39103;DHT22;24847;48.218;16.414;2023-09-07T10:26:19;28.00;99.90
39103;DHT22;24847;48.218;16.414;2023-09-07T10:31:25;28.00;99.90
39103;DHT22;24847;48.218;16.414;2023-09-07T10:36:28;27.80;99.90
39103;DHT22;24847;48.218;16.414;2023-09-07T10:41:40;27.90;99.90
39103;DHT22;24847;48.218;16.414;2023-09-07T10:46:44;28.00;99.90
39103;DHT22;24847;48.218;16.414;2023-09-07T10:51:47;28.20;99.90
39103;DHT22;24847;48.218;16.414;2023-09-07T10:56:50;28.20;99.70
39103;DHT22;24847;48.218;16.414;2023-09-07T11:01:54;28.20;98.80
39103;DHT22;24847;48.218;16.414;2023-09-07T11:06:56;28.10;98.30
39103;DHT22;24847;48.218;16.414;2023-09-07T11:12:04;28.00;99.20
39103;DHT22;24847;48.218;16.414;2023-09-07T11:17:08;28.10;98.60
39103;DHT22;24847;48.218;16.414;2023-09-07T11:22:11;27.90;97.90
39103;DHT22;24847;48.218;16.414;2023-09-07T11:27:17;27.60;97.80
39103;DHT22;24847;48.218;16.414;2023-09-07T11:32:22;27.90;97.90
39103;DHT22;24847;48.218;16.414;2023-09-07T11:37:26;27.80;98.70
39103;DHT22;24847;48.218;16.414;2023-09-07T11:42:28;27.80;98.40
39103;DHT22;24847;48.218;16.414;2023-09-07T11:47:31;27.80;99.10
39103;DHT22;24847;48.218;16.414;2023-09-07T11:52:35;27.70;99.90
39103;DHT22;24847;48.218;16.414;2023-09-07T11:57:37;27.80;99.90
39103;DHT22;24847;48.218;16.414;2023-09-07T12:02:41;27.60;99.90
39103;DHT22;24847;48.218;16.414;2023-09-07T12:07:43;27.20;99.90
39103;DHT22;24847;48.218;16.414;2023-09-07T12:12:45;27.60;99.90
39103;DHT22;24847;48.218;16.414;2023-09-07T12:17:49;27.60;99.90
39103;DHT22;24847;48.218;16.414;2023-09-07T12:22:54;27.30;99.90
39103;DHT22;24847;48.218;16.414;2023-09-07T12:27:57;27.50;99.90
39103;DHT22;24847;48.218;16.414;2023-09-07T12:33:00;27.50;99.90
39103;DHT22;24847;48.218;16.414;2023-09-07T12:38:03;27.30;99.90
39103;DHT22;24847;48.218;16.414;2023-09-07T12:43:05;27.20;99.90
39103;DHT22;24847;48.218;16.414;2023-09-07T12:48:09;27.20;99.90
39103;DHT22;24847;48.218;16.414;2023-09-07T12:53:14;27.10;99.90
39103;DHT22;24847;48.218;16.414;2023-09-07T12:58:16;27.30;99.90
39103;DHT22;24847;48.218;16.414;2023-09-07T13:03:20;26.80;99.90
39103;DHT22;24847;48.218;16.414;2023-09-07T13:08:23;27.00;99.90
39103;DHT22;24847;48.218;16.414;2023-09-07T13:13:25;26.60;99.90
39103;DHT22;24847;48.218;16.414;2023-09-07T13:18:31;26.70;99.90
39103;DHT22;24847;48.218;16.414;2023-09-07T13:23:33;26.70;99.90
39103;DHT22;24847;48.218;16.414;2023-09-07T13:28:35;26.60;99.90
39103;DHT22;24847;48.218;16.414;2023-09-07T13:33:39;26.50;99.90
39103;DHT22;24847;48.218;16.414;2023-09-07T13:38:41;26.10;99.90
39103;DHT22;24847;48.218;16.414;2023-09-07T13:43:44;26.40;99.90
39103;DHT22;24847;48.218;16.414;2023-09-07T13:48:48;26.20;99.90
39103;DHT22;24847;48.218;16.414;2023-09-07T13:53:50;26.40;99.90
39103;DHT22;24847;48.218;16.414;2023-09-07T13:58:52;26.40;99.90
39103;DHT22;24847;48.218;16.414;2023-09-07T14:03:56;26.50;99.90
39103;DHT22;24847;48.218;16.414;2023-09-07T14:08:58;26.30;99.90
39103;DHT22;24847;48.218;16.414;2023-09-07T14:14:00;26.30;99.90
39103;DHT22;24847;48.218;16.414;2023-09-07T14:19:04;26.30;99.90
39103;DHT22;24847;48.218;16.414;2023-09-07T14:24:06;26.10;99.90
39103;DHT22;24847;48.218;16.414;2023-09-07T14:29:09;26.30;99.90
39103;DHT22;24847;48.218;16.414;2023-09-07T14:34:13;26.20;99.90
39103;DHT22;24847;48.218;16.414;2023-09-07T14:39:15;26.10;99.90
39103;DHT22;24847;48.218;16.414;2023-09-07T14:44:21;26.10;99.90
39103;DHT22;24847;48.218;16.414;2023-09-07T14:49:25;26.20;99.90
39103;DHT22;24847;48.218;16.414;2023-09-07T14:54:27;25.90;99.90
39103;DHT22;24847;48.218;16.414;2023-09-07T14:59:30;26.00;99.90
39103;DHT22;24847;48.218;16.414;2023-09-07T15:04:35;26.20;99.90
39103;DHT22;24847;48.218;16.414;2023-09-07T15:09:38;26.00;99.90
39103;DHT22;24847;48.218;16.414;2023-09-07T15:14:41;25.90;99.90
39103;DHT22;24847;48.218;16.414;2023-09-07T15:19:45;25.80;99.90
39103;DHT22;24847;48.218;16.414;2023-09-07T15:24:49;25.80;99.90
39103;DHT22;24847;48.218;16.414;2023-09-07T15:29:52;25.70;99.90
39103;DHT22;24847;48.218;16.414;2023-09-07T15:34:57;25.80;99.90
39103;DHT22;24847;48.218;16.414;2023-09-07T15:40:00;25.60;99.90
39103;DHT22;24847;48.218;16.414;2023-09-07T15:45:05;25.70;99.90
39103;DHT22;24847;48.218;16.414;2023-09-07T15:50:11;25.60;99.90
39103;DHT22;24847;48.218;16.414;2023-09-07T15:55:17;25.60;99.90
39103;DHT22;24847;48.218;16.414;2023-09-07T16:00:19;25.50;99.90
39103;DHT22;24847;48.218;16.414;2023-09-07T16:05:25;25.40;99.90
39103;DHT22;24847;48.218;16.414;2023-09-07T16:10:38;25.30;99.90
39103;DHT22;24847;48.218;16.414;2023-09-07T16:15:43;25.30;99.90
39103;DHT22;24847;48.218;16.414;2023-09-07T16:20:50;25.20;99.90
39103;DHT22;24847;48.218;16.414;2023-09-07T16:25:54;25.10;99.90
39103;DHT22;24847;48.218;16.414;2023-09-07T16:30:57;24.90;99.90
39103;DHT22;24847;48.218;16.414;2023-09-07T16:36:04;24.90;99.90
39103;DHT22;24847;48.218;16.414;2023-09-07T16:41:09;24.80;99.90
39103;DHT22;24847;48.218;16.414;2023-09-07T16:46:13;24.80;99.90
39103;DHT22;24847;48.218;16.414;2023-09-07T16:51:18;24.80;99.90
39103;DHT22;24847;48.218;16.414;2023-09-07T16:56:23;24.80;99.90
39103;DHT22;24847;48.218;16.414;2023-09-07T17:01:29;24.70;99.90
39103;DHT22;24847;48.218;16.414;2023-09-07T17:06:34;24.50;99.90
39103;DHT22;24847;48.218;16.414;2023-09-07T17:11:38;24.50;99.90
39103;DHT22;24847;48.218;16.414;2023-09-07T17:16:41;24.50;99.90
39103;DHT22;24847;48.218;16.414;2023-09-07T17:21:45;24.50;99.90
39103;DHT22;24847;48.218;16.414;2023-09-07T17:26:49;24.40;99.90
39103;DHT22;24847;48.218;16.414;2023-09-07T17:31:52;24.50;99.90
39103;DHT22;24847;48.218;16.414;2023-09-07T17:36:56;24.40;99.90
39103;DHT22;24847;48.218;16.414;2023-09-07T17:41:59;24.40;99.90
39103;DHT22;24847;48.218;16.414;2023-09-07T17:47:05;24.50;99.90
39103;DHT22;24847;48.218;16.414;2023-09-07T17:52:13;24.70;99.90
39103;DHT22;24847;48.218;16.414;2023-09-07T17:57:18;24.50;99.90
39103;DHT22;24847;48.218;16.414;2023-09-07T18:02:25;24.60;99.90
39103;DHT22;24847;48.218;16.414;2023-09-07T18:07:32;24.60;99.90
39103;DHT22;24847;48.218;16.414;2023-09-07T18:12:39;24.30;99.90
39103;DHT22;24847;48.218;16.414;2023-09-07T18:17:43;24.50;99.90
39103;DHT22;24847;48.218;16.414;2023-09-07T18:22:52;24.50;99.90
39103;DHT22;24847;48.218;16.414;2023-09-07T18:27:57;24.50;99.90
39103;DHT22;24847;48.218;16.414;2023-09-07T18:33:02;24.50;99.90
39103;DHT22;24847;48.218;16.414;2023-09-07T18:38:09;24.20;99.90
39103;DHT22;24847;48.218;16.414;2023-09-07T18:43:15;23.70;99.90
39103;DHT22;24847;48.218;16.414;2023-09-07T18:48:19;23.70;99.90
39103;DHT22;24847;48.218;16.414;2023-09-07T18:53:24;23.20;99.90
39103;DHT22;24847;48.218;16.414;2023-09-07T18:58:31;22.90;99.90
39103;DHT22;24847;48.218;16.414;2023-09-07T19:03:36;23.30;99.90
39103;DHT22;24847;48.218;16.414;2023-09-07T19:08:42;23.40;99.90
39103;DHT22;24847;48.218;16.414;2023-09-07T19:13:49;23.50;99.90
39103;DHT22;24847;48.218;16.414;2023-09-07T19:18:54;23.50;99.90
39103;DHT22;24847;48.218;16.414;2023-09-07T19:24:01;23.50;99.90
39103;DHT22;24847;48.218;16.414;2023-09-07T19:29:09;23.60;99.90
39103;DHT22;24847;48.218;16.414;2023-09-07T19:34:14;23.10;99.90
39103;DHT22;24847;48.218;16.414;2023-09-07T19:39:19;22.80;99.90
39103;DHT22;24847;48.218;16.414;2023-09-07T19:44:22;22.50;99.90
39103;DHT22;24847;48.218;16.414;2023-09-07T19:49:28;22.30;99.90
39103;DHT22;24847;48.218;16.414;2023-09-07T19:54:35;22.30;99.90
39103;DHT22;24847;48.218;16.414;2023-09-07T19:59:41;22.20;99.90
39103;DHT22;24847;48.218;16.414;2023-09-07T20:04:48;22.20;99.90
39103;DHT22;24847;48.218;16.414;2023-09-07T20:09:58;21.90;99.90
39103;DHT22;24847;48.218;16.414;2023-09-07T20:15:07;22.10;99.90
39103;DHT22;24847;48.218;16.414;2023-09-07T20:20:10;22.20;99.90
39103;DHT22;24847;48.218;16.414;2023-09-07T20:25:20;22.60;99.90
39103;DHT22;24847;48.218;16.414;2023-09-07T20:30:23;22.10;99.90
39103;DHT22;24847;48.218;16.414;2023-09-07T20:35:29;22.10;99.90
39103;DHT22;24847;48.218;16.414;2023-09-07T20:40:35;21.70;99.90
39103;DHT22;24847;48.218;16.414;2023-09-07T20:45:38;21.50;99.90
39103;DHT22;24847;48.218;16.414;2023-09-07T20:50:43;21.30;99.90
39103;DHT22;24847;48.218;16.414;2023-09-07T20:55:50;21.60;99.90
39103;DHT22;24847;48.218;16.414;2023-09-07T21:00:53;21.20;99.90
39103;DHT22;24847;48.218;16.414;2023-09-07T21:05:57;21.50;99.90
39103;DHT22;24847;48.218;16.414;2023-09-07T21:11:00;21.10;99.90
39103;DHT22;24847;48.218;16.414;2023-09-07T21:16:04;21.00;99.90
39103;DHT22;24847;48.218;16.414;2023-09-07T21:21:07;20.60;99.90
39103;DHT22;24847;48.218;16.414;2023-09-07T21:26:10;20.30;99.90
39103;DHT22;24847;48.218;16.414;2023-09-07T21:31:12;20.30;99.90
39103;DHT22;24847;48.218;16.414;2023-09-07T21:36:15;20.60;99.90
39103;DHT22;24847;48.218;16.414;2023-09-07T21:41:19;20.40;99.90
39103;DHT22;24847;48.218;16.414;2023-09-07T21:46:22;19.90;99.90
39103;DHT22;24847;48.218;16.414;2023-09-07T21:51:24;19.80;99.90
39103;DHT22;24847;48.218;16.414;2023-09-07T21:56:27;19.80;99.90
39103;DHT22;24847;48.218;16.414;2023-09-07T22:01:30;19.90;99.90
39103;DHT22;24847;48.218;16.414;2023-09-07T22:06:33;19.80;99.90
39103;DHT22;24847;48.218;16.414;2023-09-07T22:11:37;19.60;99.90
39103;DHT22;24847;48.218;16.414;2023-09-07T22:16:39;19.70;99.90
39103;DHT22;24847;48.218;16.414;2023-09-07T22:21:41;19.60;99.90
39103;DHT22;24847;48.218;16.414;2023-09-07T22:26:45;19.80;99.90
39103;DHT22;24847;48.218;16.414;2023-09-07T22:31:49;19.90;99.90
39103;DHT22;24847;48.218;16.414;2023-09-07T22:36:53;20.00;99.90
39103;DHT22;24847;48.218;16.414;2023-09-07T22:41:57;19.80;99.90
39103;DHT22;24847;48.218;16.414;2023-09-07T22:46:59;19.50;99.90
39103;DHT22;24847;48.218;16.414;2023-09-07T22:52:02;19.50;99.90
39103;DHT22;24847;48.218;16.414;2023-09-07T22:57:06;19.30;99.90
39103;DHT22;24847;48.218;16.414;2023-09-07T23:02:09;19.40;99.90
39103;DHT22;24847;48.218;16.414;2023-09-07T23:07:11;19.30;99.90
39103;DHT22;24847;48.218;16.414;2023-09-07T23:12:15;19.70;99.90
39103;DHT22;24847;48.218;16.414;2023-09-07T23:17:17;19.50;99.90
39103;DHT22;24847;48.218;16.414;2023-09-07T23:22:20;19.80;99.90
39103;DHT22;24847;48.218;16.414;2023-09-07T23:27:24;19.20;99.90
39103;DHT22;24847;48.218;16.414;2023-09-07T23:32:26;19.30;99.90
39103;DHT22;24847;48.218;16.414;2023-09-07T23:37:36;18.80;99.90
39103;DHT22;24847;48.218;16.414;2023-09-07T23:42:41;19.20;99.90
39103;DHT22;24847;48.218;16.414;2023-09-07T23:47:43;19.20;99.90
39103;DHT22;24847;48.218;16.414;2023-09-07T23:52:45;19.00;99.90
39103;DHT22;24847;48.218;16.414;2023-09-07T23:57:49;19.10;99.90
